createdAt,value
2018-02-06T07:15:04.732Z,-4.00
2018-02-06T07:17:38.375Z,-3.80
2018-02-06T07:20:08.412Z,-3.60
2018-02-06T07:22:40.971Z,-3.40
2018-02-06T07:25:08.996Z,-3.30
2018-02-06T07:27:37.019Z,-3.10
2018-02-06T07:30:19.279Z,-3.10
2018-02-06T07:32:47.293Z,-3.00
2018-02-06T07:35:15.303Z,-2.80
2018-02-06T07:37:43.315Z,-2.60
2018-02-06T07:40:11.327Z,-2.30
2018-02-06T07:42:43.067Z,-2.00
2018-02-06T07:45:11.098Z,-2.00
2018-02-06T07:47:41.039Z,-1.80
2018-02-06T07:50:09.063Z,-1.60
2018-02-06T07:52:37.079Z,-1.40
2018-02-06T07:55:05.123Z,-1.20
2018-02-06T07:57:37.632Z,-1.10
2018-02-06T08:00:06.563Z,-1.00
2018-02-06T08:02:35.492Z,-0.90
2018-02-06T08:05:03.524Z,-1.00
2018-02-06T08:07:31.535Z,-0.80
2018-02-06T08:10:01.552Z,-0.30
2018-02-06T08:12:29.579Z,-0.20
2018-02-06T08:14:57.596Z,-0.20
2018-02-06T08:17:29.251Z,0.00
2018-02-06T08:19:57.263Z,0.30
2018-02-06T08:22:25.295Z,0.30
2018-02-06T08:24:53.311Z,0.70
2018-02-06T08:27:27.263Z,1.20
2018-02-06T08:29:55.283Z,1.40
2018-02-06T08:32:23.299Z,1.40
2018-02-06T08:34:58.301Z,0.90
2018-02-06T08:37:26.315Z,1.20
2018-02-06T08:39:55.223Z,1.20
2018-02-06T08:42:26.127Z,1.40
2018-02-06T08:44:57.963Z,1.70
2018-02-06T08:47:26.739Z,2.60
2018-02-06T08:49:55.659Z,2.60
2018-02-06T08:52:23.671Z,3.20
2018-02-06T08:54:53.439Z,3.60
2018-02-06T08:57:21.468Z,3.50
2018-02-06T08:59:51.235Z,2.60
2018-02-06T09:02:19.275Z,2.60
2018-02-06T09:04:47.279Z,2.70
2018-02-06T09:07:18.831Z,3.60
2018-02-06T09:09:48.743Z,4.10
2018-02-06T09:12:16.760Z,3.50
2018-02-06T09:14:45.659Z,3.00
2018-02-06T09:17:13.671Z,1.90
2018-02-06T09:19:45.399Z,1.50
2018-02-06T09:22:14.315Z,1.20
2018-02-06T09:24:44.328Z,1.60
2018-02-06T09:27:13.238Z,2.00
2018-02-06T09:29:47.943Z,1.70
2018-02-06T09:32:15.967Z,2.80
2018-02-06T09:34:43.967Z,2.70
2018-02-06T09:37:12.001Z,2.00
2018-02-06T09:39:40.011Z,1.60
2018-02-06T09:42:08.031Z,1.40
2018-02-06T09:44:38.003Z,1.00
2018-02-06T09:47:06.923Z,0.70
2018-02-06T09:49:37.615Z,0.40
2018-02-06T09:52:09.183Z,0.40
2018-02-06T09:54:38.172Z,0.50
2018-02-06T09:57:06.197Z,0.70
2018-02-06T09:59:34.222Z,0.90
2018-02-06T10:02:02.242Z,1.50
2018-02-06T10:04:31.167Z,1.70
2018-02-06T10:07:00.079Z,2.00
2018-02-06T10:09:28.091Z,2.10
2018-02-06T10:11:56.103Z,2.90
2018-02-06T10:14:26.011Z,3.50
2018-02-06T10:16:54.031Z,4.40
2018-02-06T10:19:22.026Z,5.90
2018-02-06T10:21:50.042Z,7.30
2018-02-06T10:24:18.047Z,8.40
2018-02-06T10:26:46.062Z,7.60
2018-02-06T10:29:15.031Z,7.10
2018-02-06T10:31:43.036Z,6.40
2018-02-06T10:34:11.034Z,6.40
2018-02-06T10:36:39.038Z,6.00
2018-02-06T10:39:07.046Z,5.60
2018-02-06T10:41:40.994Z,6.00
2018-02-06T10:44:09.017Z,6.80
2018-02-06T10:46:42.634Z,7.30
2018-02-06T10:49:13.334Z,8.20
2018-02-06T10:51:45.167Z,8.20
2018-02-06T10:54:13.134Z,8.00
2018-02-06T10:56:41.146Z,8.50
2018-02-06T10:59:10.122Z,8.90
2018-02-06T11:01:38.181Z,9.20
2018-02-06T11:04:06.194Z,8.10
2018-02-06T11:06:34.986Z,8.30
2018-02-06T11:09:04.750Z,8.60
2018-02-06T11:11:32.750Z,8.60
2018-02-06T11:14:02.746Z,9.00
2018-02-06T11:16:30.770Z,8.40
2018-02-06T11:18:58.806Z,8.40
2018-02-06T11:21:30.322Z,7.50
2018-02-06T11:23:58.354Z,7.50
2018-02-06T11:26:26.362Z,8.10
2018-02-06T11:28:55.278Z,8.40
2018-02-06T11:31:24.246Z,8.50
2018-02-06T11:33:53.250Z,9.10
2018-02-06T11:36:22.245Z,9.50
2018-02-06T11:38:50.258Z,9.50
2018-02-06T11:41:18.298Z,8.40
2018-02-06T11:43:46.298Z,8.40
2018-02-06T11:46:18.702Z,8.40
2018-02-06T11:48:47.610Z,8.00
2018-02-06T11:51:15.620Z,7.90
2018-02-06T11:53:45.379Z,8.10
2018-02-06T11:56:13.378Z,8.10
2018-02-06T11:58:47.331Z,8.30
2018-02-06T12:01:16.262Z,8.50
2018-02-06T12:03:44.254Z,8.80
2018-02-06T12:06:13.042Z,8.40
2018-02-06T12:08:42.002Z,8.40
2018-02-06T12:11:10.010Z,8.40
2018-02-06T12:13:38.777Z,8.50
2018-02-06T12:16:07.745Z,8.50
2018-02-06T12:18:41.545Z,8.00
2018-02-06T12:21:12.595Z,8.10
2018-02-06T12:23:45.233Z,8.00
2018-02-06T12:26:16.809Z,7.10
2018-02-06T12:28:53.065Z,7.10
2018-02-06T12:31:24.018Z,6.90
2018-02-06T12:33:55.989Z,7.10
2018-02-06T12:36:24.993Z,7.50
2018-02-06T12:38:56.540Z,7.70
2018-02-06T12:41:25.525Z,8.10
2018-02-06T12:43:53.533Z,8.60
2018-02-06T12:46:22.465Z,8.40
2018-02-06T12:48:54.049Z,7.50
2018-02-06T12:51:22.055Z,6.80
2018-02-06T12:53:52.738Z,6.30
2018-02-06T12:56:20.769Z,6.20
2018-02-06T12:58:48.770Z,6.60
2018-02-06T13:01:16.791Z,6.50
2018-02-06T13:03:45.565Z,6.00
2018-02-06T13:06:14.465Z,5.90
2018-02-06T13:08:46.892Z,5.50
2018-02-06T13:11:14.910Z,5.50
2018-02-06T13:13:43.680Z,5.60
2018-02-06T13:16:16.249Z,5.30
2018-02-06T13:18:45.213Z,5.30
2018-02-06T13:21:13.283Z,5.00
2018-02-06T13:23:42.025Z,4.50
2018-02-06T13:26:11.789Z,4.80
2018-02-06T13:28:39.793Z,4.80
2018-02-06T13:31:08.569Z,6.20
2018-02-06T13:33:36.585Z,6.20
2018-02-06T13:36:04.601Z,6.40
2018-02-06T13:38:32.605Z,6.90
2018-02-06T13:41:03.381Z,7.10
2018-02-06T13:43:32.377Z,7.10
2018-02-06T13:46:01.381Z,6.20
2018-02-06T13:48:35.181Z,5.40
2018-02-06T13:51:04.165Z,5.00
2018-02-06T13:53:32.180Z,5.50
2018-02-06T13:56:05.536Z,6.00
2018-02-06T13:58:33.549Z,6.00
2018-02-06T14:01:02.334Z,5.30
2018-02-06T14:03:32.109Z,5.50
2018-02-06T14:06:06.197Z,5.50
2018-02-06T14:08:34.216Z,5.40
2018-02-06T14:11:02.357Z,5.40
2018-02-06T14:13:34.781Z,5.50
2018-02-06T14:16:06.605Z,5.10
2018-02-06T14:18:34.609Z,4.70
2018-02-06T14:21:02.637Z,4.30
2018-02-06T14:23:30.653Z,4.00
2018-02-06T14:25:58.673Z,4.10
2018-02-06T14:28:27.793Z,4.20
2018-02-06T14:30:55.801Z,4.30
2018-02-06T14:33:25.757Z,4.30
2018-02-06T14:35:53.773Z,4.60
2018-02-06T14:38:27.601Z,4.90
2018-02-06T14:40:55.609Z,4.80
2018-02-06T14:43:23.617Z,4.10
2018-02-06T14:45:52.553Z,3.50
2018-02-06T14:48:20.569Z,3.20
2018-02-06T14:50:49.345Z,2.90
2018-02-06T14:53:19.113Z,2.70
2018-02-06T14:55:52.121Z,2.70
2018-02-06T14:58:21.025Z,2.60
2018-02-06T15:00:49.921Z,2.50
2018-02-06T15:03:18.705Z,2.40
2018-02-06T15:05:51.045Z,2.40
2018-02-06T15:08:22.704Z,2.30
2018-02-06T15:10:55.480Z,2.30
2018-02-06T15:13:23.476Z,2.60
2018-02-06T15:15:52.297Z,3.30
2018-02-06T15:18:20.309Z,3.30
2018-02-06T15:20:48.312Z,3.40
2018-02-06T15:23:21.008Z,3.70
2018-02-06T15:25:49.030Z,3.60
2018-02-06T15:28:17.049Z,4.10
2018-02-06T15:30:45.061Z,4.70
2018-02-06T15:33:13.101Z,4.70
2018-02-06T15:35:41.120Z,4.80
2018-02-06T15:38:11.022Z,4.90
2018-02-06T15:40:39.033Z,4.90
2018-02-06T15:43:09.863Z,5.30
2018-02-06T15:45:37.825Z,5.20
2018-02-06T15:48:06.635Z,5.60
2018-02-06T15:50:35.397Z,5.50
2018-02-06T15:53:10.904Z,5.50
2018-02-06T15:55:46.528Z,4.90
2018-02-06T15:58:20.361Z,4.40
2018-02-06T16:01:06.189Z,4.10
2018-02-06T16:03:35.001Z,3.40
2018-02-06T16:06:05.680Z,3.00
2018-02-06T16:08:33.692Z,3.00
2018-02-06T16:11:02.605Z,2.70
2018-02-06T16:13:31.642Z,2.30
2018-02-06T16:15:59.685Z,1.90
2018-02-06T16:18:27.737Z,1.40
2018-02-06T16:20:55.745Z,1.00
2018-02-06T16:23:23.756Z,0.80
2018-02-06T16:25:52.696Z,0.60
2018-02-06T16:28:22.076Z,0.50
2018-02-06T16:30:50.045Z,0.30
2018-02-06T16:33:28.264Z,0.20
2018-02-06T16:36:03.889Z,0.00
2018-02-06T16:38:35.989Z,0.00
2018-02-06T16:41:04.001Z,0.00
2018-02-06T16:43:34.693Z,-0.20
2018-02-06T16:46:10.813Z,-0.30
2018-02-06T16:48:49.029Z,-0.30
2018-02-06T16:51:17.037Z,-0.40
2018-02-06T16:53:46.017Z,-0.40
2018-02-06T16:56:17.792Z,-0.40
2018-02-06T16:58:46.781Z,-0.40
2018-02-06T17:01:14.793Z,-0.50
2018-02-06T17:03:43.717Z,-0.50
2018-02-06T17:06:11.729Z,-0.60
2018-02-06T17:08:39.753Z,-0.60
2018-02-06T17:11:07.764Z,-0.70
2018-02-06T17:13:37.745Z,-0.70
2018-02-06T17:16:06.744Z,-0.70
2018-02-06T17:18:36.768Z,-0.70
2018-02-06T17:21:05.673Z,-0.70
2018-02-06T17:23:33.697Z,-0.70
2018-02-06T17:26:01.733Z,-0.70
2018-02-06T17:28:31.696Z,-0.70
2018-02-06T17:30:59.712Z,-0.70
2018-02-06T17:33:27.724Z,-0.70
2018-02-06T17:35:57.185Z,-0.70
2018-02-06T17:38:25.968Z,-0.70
2018-02-06T17:40:54.760Z,-0.70
2018-02-06T17:43:24.067Z,-0.80
2018-02-06T17:45:55.520Z,-0.90
2018-02-06T17:48:23.556Z,-0.90
2018-02-06T17:50:52.529Z,-0.90
2018-02-06T17:53:20.540Z,-0.90
2018-02-06T17:55:53.284Z,-1.00
2018-02-06T17:58:21.295Z,-1.10
2018-02-06T18:00:50.968Z,-1.10
2018-02-06T18:03:18.988Z,-1.10
2018-02-06T18:05:47.912Z,-1.30
2018-02-06T18:08:15.924Z,-1.30
2018-02-06T18:10:47.858Z,-1.40
2018-02-06T18:13:15.872Z,-1.40
2018-02-06T18:15:53.920Z,-1.40
2018-02-06T18:18:21.904Z,-1.40
2018-02-06T18:20:49.933Z,-1.40
2018-02-06T18:23:19.620Z,-1.50
2018-02-06T18:25:47.672Z,-1.50
2018-02-06T18:28:17.458Z,-1.50
2018-02-06T18:30:53.076Z,-1.50
2018-02-06T18:33:35.456Z,-1.60
2018-02-06T18:36:03.464Z,-1.60
2018-02-06T18:38:33.384Z,-1.60
2018-02-06T18:41:02.380Z,-1.50
2018-02-06T18:43:36.916Z,-1.60
2018-02-06T18:46:05.858Z,-1.60
2018-02-06T18:48:34.804Z,-1.60
2018-02-06T18:51:03.804Z,-1.60
2018-02-06T18:53:31.845Z,-1.70
2018-02-06T18:55:59.840Z,-1.60
2018-02-06T18:58:40.932Z,-1.70
2018-02-06T19:01:09.752Z,-1.70
2018-02-06T19:03:37.784Z,-1.70
2018-02-06T19:06:05.800Z,-1.70
2018-02-06T19:08:38.853Z,-1.80
2018-02-06T19:11:07.788Z,-1.80
2018-02-06T19:13:36.788Z,-1.80
2018-02-06T19:16:10.200Z,-1.80
2018-02-06T19:18:39.100Z,-1.90
2018-02-06T19:21:09.108Z,-1.90
2018-02-06T19:23:37.132Z,-2.00
2018-02-06T19:26:22.696Z,-2.00
2018-02-06T19:28:52.664Z,-2.00
2018-02-06T19:31:21.663Z,-2.00
2018-02-06T19:33:53.204Z,-2.10
2018-02-06T19:36:25.118Z,-2.20
2018-02-06T19:38:53.220Z,-2.20
2018-02-06T19:41:24.280Z,-2.20
2018-02-06T19:44:07.251Z,-2.20
2018-02-06T19:46:40.391Z,-2.20
2018-02-06T19:49:16.879Z,-2.20
2018-02-06T19:51:49.121Z,-2.30
2018-02-06T19:54:21.008Z,-2.30
2018-02-06T19:56:54.792Z,-2.40
2018-02-06T19:59:23.100Z,-2.40
2018-02-06T20:01:51.304Z,-2.40
2018-02-06T20:04:24.929Z,-2.40
2018-02-06T20:06:59.308Z,-2.20
2018-02-06T20:09:27.342Z,-2.20
2018-02-06T20:11:57.336Z,-2.20
2018-02-06T20:14:32.983Z,-2.30
2018-02-06T20:17:13.735Z,-2.20
2018-02-06T20:19:49.587Z,-2.20
2018-02-06T20:22:19.284Z,-2.30
2018-02-06T20:24:48.219Z,-2.20
2018-02-06T20:27:20.456Z,-2.20
2018-02-06T20:29:49.492Z,-2.20
2018-02-06T20:32:17.540Z,-2.20
2018-02-06T20:34:48.943Z,-2.20
2018-02-06T20:37:16.964Z,-2.20
2018-02-06T20:39:48.415Z,-2.20
2018-02-06T20:42:24.847Z,-2.20
2018-02-06T20:44:52.892Z,-2.20
2018-02-06T20:47:25.888Z,-2.20
2018-02-06T20:49:54.891Z,-2.30
2018-02-06T20:52:23.831Z,-2.30
2018-02-06T20:54:53.833Z,-2.30
2018-02-06T20:57:26.008Z,-2.30
2018-02-06T20:59:54.036Z,-2.40
2018-02-06T21:02:27.319Z,-2.50
2018-02-06T21:04:56.255Z,-2.60
2018-02-06T21:07:30.179Z,-2.60
2018-02-06T21:09:58.223Z,-2.60
2018-02-06T21:12:36.560Z,-2.60
2018-02-06T21:15:07.579Z,-2.60
2018-02-06T21:17:37.607Z,-2.70
2018-02-06T21:20:07.627Z,-2.70
2018-02-06T21:22:42.331Z,-2.60
2018-02-06T21:25:12.281Z,-2.60
2018-02-06T21:27:40.307Z,-2.60
2018-02-06T21:30:10.236Z,-2.70
2018-02-06T21:32:38.275Z,-2.70
2018-02-06T21:35:09.727Z,-2.70
2018-02-06T21:37:37.851Z,-2.60
2018-02-06T21:40:13.259Z,-2.60
2018-02-06T21:42:42.287Z,-2.60
2018-02-06T21:45:13.831Z,-2.70
2018-02-06T21:47:42.739Z,-2.70
2018-02-06T21:50:12.439Z,-2.80
2018-02-06T21:52:41.431Z,-2.80
2018-02-06T21:55:12.763Z,-2.80
2018-02-06T21:57:44.319Z,-2.70
2018-02-06T22:00:12.335Z,-2.70
2018-02-06T22:02:41.271Z,-2.70
2018-02-06T22:05:09.307Z,-2.60
2018-02-06T22:07:38.335Z,-2.60
2018-02-06T22:10:06.381Z,-2.50
2018-02-06T22:12:34.403Z,-2.50
2018-02-06T22:15:06.743Z,-2.50
2018-02-06T22:17:34.775Z,-2.50
2018-02-06T22:20:02.799Z,-2.50
2018-02-06T22:22:40.686Z,-2.50
2018-02-06T22:25:12.760Z,-2.50
2018-02-06T22:27:41.753Z,-2.60
2018-02-06T22:30:22.775Z,-2.60
2018-02-06T22:32:51.711Z,-2.60
2018-02-06T22:35:25.422Z,-2.60
2018-02-06T22:37:54.250Z,-2.60
2018-02-06T22:40:22.271Z,-2.70
2018-02-06T22:42:51.259Z,-2.70
2018-02-06T22:45:23.090Z,-2.80
2018-02-06T22:47:52.515Z,-2.80
2018-02-06T22:50:20.487Z,-2.80
2018-02-06T22:52:53.307Z,-2.80
2018-02-06T22:55:28.282Z,-2.80
2018-02-06T22:57:58.222Z,-2.80
2018-02-06T23:00:28.151Z,-2.80
2018-02-06T23:02:57.131Z,-2.90
2018-02-06T23:05:25.147Z,-2.80
2018-02-06T23:07:56.007Z,-2.80
2018-02-06T23:10:25.939Z,-2.70
2018-02-06T23:12:53.955Z,-2.70
2018-02-06T23:15:22.738Z,-2.90
2018-02-06T23:17:53.163Z,-2.90
2018-02-06T23:20:33.158Z,-3.00
2018-02-06T23:23:03.170Z,-3.00
2018-02-06T23:25:31.207Z,-3.00
2018-02-06T23:28:00.979Z,-3.10
2018-02-06T23:30:34.435Z,-3.10
2018-02-06T23:33:02.467Z,-3.10
2018-02-06T23:35:33.618Z,-3.10
2018-02-06T23:38:09.511Z,-3.10
2018-02-06T23:40:38.559Z,-3.10
2018-02-06T23:43:06.560Z,-3.10
2018-02-06T23:45:35.491Z,-3.10
2018-02-06T23:48:14.907Z,-3.20
2018-02-06T23:50:42.947Z,-3.20
2018-02-06T23:53:25.142Z,-3.10
2018-02-06T23:55:55.834Z,-3.10
2018-02-06T23:58:24.814Z,-3.10
